Time;durP1;ratioP1;P1;durP2;ratioP2;P2;SDS_P1;SDS_P2;PMS_P1;PMS_P2;Temp;Humidity;BMP_temperature;BMP_pressure;BME280_temperature;BME280_humidity;BME280_pressure;Samples;Min_cycle;Max_cycle;Signal;HPM_P1;HPM_P2
2021/04/10 00:02:17;;;;;;;5.08;2.98;;;;;;;4.61;42.05;97097.48;1720139;81;21069;-56
2021/04/10 00:04:45;;;;;;;3.55;2.92;;;;;;;4.60;41.99;97098.39;1726792;81;21049;-56
2021/04/10 00:07:14;;;;;;;3.42;2.67;;;;;;;4.65;41.99;97102.50;1695854;84;21121;-57
2021/04/10 00:09:41;;;;;;;4.05;3.08;;;;;;;4.65;41.99;97102.50;1701679;83;21105;-57
2021/04/10 00:12:10;;;;;;;3.95;3.12;;;;;;;4.67;42.00;97100.27;1689291;84;21471;-56
2021/04/10 00:14:39;;;;;;;5.22;2.85;;;;;;;4.65;41.86;97100.76;1702847;83;21240;-57
2021/04/10 00:17:09;;;;;;;5.70;3.20;;;;;;;4.65;41.85;97102.50;1697069;83;21229;-57
2021/04/10 00:19:39;;;;;;;4.70;3.12;;;;;;;4.64;42.25;97099.11;1697143;83;21114;-56
2021/04/10 00:22:06;;;;;;;3.20;2.60;;;;;;;4.65;41.97;97094.33;1688335;84;21066;-57
2021/04/10 00:24:34;;;;;;;5.40;3.42;;;;;;;4.65;41.97;97094.33;1697591;83;21384;-57
2021/04/10 00:27:02;;;;;;;4.17;3.20;;;;;;;4.64;42.12;97099.11;1684361;83;21189;-57
2021/04/10 00:29:30;;;;;;;7.90;3.37;;;;;;;4.61;42.12;97096.65;1697570;84;21584;-57
2021/04/10 00:31:58;;;;;;;4.50;2.87;;;;;;;4.42;42.52;97088.79;1685042;83;21244;-57
2021/04/10 00:34:26;;;;;;;5.08;3.10;;;;;;;4.38;42.62;97088.08;1698036;84;21074;-55
2021/04/10 00:36:54;;;;;;;4.03;3.08;;;;;;;4.38;42.62;97088.08;1696891;83;21239;-56
2021/04/10 00:39:21;;;;;;;6.58;3.37;;;;;;;4.35;42.60;97093.33;1692849;84;21598;-57
2021/04/10 00:41:49;;;;;;;7.15;3.30;;;;;;;4.31;42.76;97093.49;1695940;83;21205;-56
2021/04/10 00:44:20;;;;;;;4.60;3.80;;;;;;;4.27;42.66;97085.06;1684884;83;21630;-56
2021/04/10 00:46:48;;;;;;;4.53;3.60;;;;;;;4.28;42.96;97085.92;1699620;83;21082;-56
2021/04/10 00:49:17;;;;;;;6.08;3.60;;;;;;;4.22;43.04;97084.41;1684107;83;21381;-56
2021/04/10 00:51:45;;;;;;;5.72;4.00;;;;;;;4.17;43.18;97073.47;1688425;83;21587;-58
2021/04/10 00:54:13;;;;;;;4.75;3.80;;;;;;;4.06;43.26;97078.98;1691964;83;21133;-55
2021/04/10 00:56:41;;;;;;;7.28;3.83;;;;;;;4.00;43.70;97080.52;1716885;81;21191;-55
2021/04/10 00:59:09;;;;;;;9.75;4.00;;;;;;;3.89;43.66;97075.76;1722923;81;21061;-56
2021/04/10 01:01:38;;;;;;;7.05;4.45;;;;;;;3.84;43.81;97079.77;1696627;81;22298;-55
2021/04/10 01:04:06;;;;;;;6.50;4.17;;;;;;;3.62;44.09;97075.86;1704504;82;21077;-55
2021/04/10 01:06:34;;;;;;;10.78;3.87;;;;;;;3.36;44.47;97072.91;1720122;81;21172;-56
2021/04/10 01:09:04;;;;;;;5.78;3.58;;;;;;;3.10;44.63;97075.88;1698748;81;21153;-54
2021/04/10 01:11:59;;;;;;;6.55;3.52;;;;;;;2.88;45.26;97082.16;1724986;81;21706;-57
2021/04/10 01:15:03;;;;;;;6.08;3.60;;;;;;;2.66;45.68;97084.55;1723646;81;21276;-56
2021/04/10 01:17:37;;;;;;;6.05;3.90;;;;;;;2.39;46.16;97087.52;1719484;81;21205;-56
2021/04/10 01:20:22;;;;;;;8.35;3.90;;;;;;;2.19;46.83;97085.11;1727778;81;21148;-56
2021/04/10 01:23:21;;;;;;;5.97;3.85;;;;;;;2.12;47.15;97089.16;1723760;81;21624;-55
2021/04/10 01:26:04;;;;;;;5.28;3.80;;;;;;;2.03;47.28;97089.81;1718191;83;21676;-56
2021/04/10 01:28:58;;;;;;;6.03;3.80;;;;;;;1.92;47.53;97091.84;1718790;81;22278;-56
2021/04/10 01:31:39;;;;;;;6.42;4.25;;;;;;;1.85;47.85;97091.63;1716354;81;21076;-55
2021/04/10 01:34:18;;;;;;;6.58;4.00;;;;;;;1.74;48.58;97088.06;1719649;81;21082;-56
2021/04/10 01:36:46;;;;;;;;;;;;;;;1.79;48.69;97087.95;1728536;81;21502;-56
2021/04/10 01:39:14;;;;;;;6.95;3.90;;;;;;;2.05;48.57;97086.39;1727660;81;20241;-57
2021/04/10 01:41:46;;;;;;;8.48;3.70;;;;;;;2.35;47.97;97085.92;1732085;81;21450;-57
2021/04/10 01:44:16;;;;;;;6.12;3.62;;;;;;;2.55;47.38;97089.19;1727496;81;21110;-56
2021/04/10 01:46:46;;;;;;;4.95;3.33;;;;;;;2.62;46.79;97082.98;1674055;83;22321;-56
2021/04/10 01:49:14;;;;;;;6.58;4.25;;;;;;;2.55;46.63;97084.89;1717890;81;21144;-56
2021/04/10 01:51:42;;;;;;;7.20;5.20;;;;;;;2.47;46.65;97086.85;1721350;81;21142;-56
2021/04/10 01:54:09;;;;;;;8.43;6.28;;;;;;;2.53;46.58;97085.39;1730227;81;21329;-56
2021/04/10 01:56:42;;;;;;;12.05;5.85;;;;;;;2.62;46.48;97088.11;1724879;82;21080;-57
2021/04/10 01:59:15;;;;;;;12.78;6.92;;;;;;;2.72;46.34;97077.13;1716152;82;21163;-56
2021/04/10 02:01:56;;;;;;;5.60;4.80;;;;;;;2.83;46.42;97071.22;1873678;75;22401;-58
2021/04/10 02:04:32;;;;;;;9.60;4.53;;;;;;;2.83;46.47;97080.20;1843182;75;20977;-56
2021/04/10 02:07:01;;;;;;;5.33;4.22;;;;;;;2.94;46.70;97074.70;1820284;77;21548;-57
2021/04/10 02:09:31;;;;;;;6.72;4.25;;;;;;;3.01;46.61;97074.92;1847775;75;21165;-54
2021/04/10 02:12:21;;;;;;;4.77;3.93;;;;;;;3.12;46.58;97073.27;1864584;76;22745;-56
2021/04/10 02:14:52;;;;;;;7.95;4.03;;;;;;;3.10;46.59;97074.60;1827231;77;21114;-55
2021/04/10 02:17:20;;;;;;;7.65;4.40;;;;;;;3.13;46.61;97071.11;1828509;77;22115;-57
2021/04/10 02:19:50;;;;;;;5.00;3.83;;;;;;;3.15;46.77;97068.05;1828614;77;21658;-57
2021/04/10 02:22:20;;;;;;;8.78;3.72;;;;;;;3.17;46.53;97070.56;1769415;78;21499;-56
2021/04/10 02:24:48;;;;;;;7.58;4.08;;;;;;;3.18;46.59;97071.80;1836685;77;21051;-57
2021/04/10 02:27:16;;;;;;;11.38;4.20;;;;;;;3.17;46.58;97067.54;1828965;77;21028;-56
2021/04/10 02:29:54;;;;;;;13.20;3.87;;;;;;;3.14;46.60;97068.92;1830854;77;21255;-57
2021/04/10 02:32:30;;;;;;;4.97;3.30;;;;;;;3.13;46.83;97068.55;1829956;77;21107;-56
2021/04/10 02:35:09;;;;;;;7.10;3.50;;;;;;;3.11;47.03;97065.20;1839406;77;21459;-57
2021/04/10 02:37:37;;;;;;;7.85;3.22;;;;;;;3.11;47.09;97075.46;1831438;77;21468;-56
2021/04/10 02:40:09;;;;;;;5.47;3.42;;;;;;;3.10;47.13;97070.75;1823628;77;21111;-56
2021/04/10 02:42:40;;;;;;;7.22;3.30;;;;;;;3.10;47.26;97066.91;1782083;78;21190;-56
2021/04/10 02:45:10;;;;;;;4.15;3.00;;;;;;;3.16;47.17;97072.72;1762235;79;21540;-56
2021/04/10 02:47:39;;;;;;;6.50;3.65;;;;;;;3.21;47.15;97066.56;1733055;79;21132;-57
2021/04/10 02:50:10;;;;;;;4.90;3.20;;;;;;;3.26;47.05;97066.42;1717718;80;21493;-57
2021/04/10 02:52:45;;;;;;;4.45;3.30;;;;;;;3.33;46.96;97067.05;1762935;79;21515;-58
2021/04/10 02:55:17;;;;;;;5.20;3.27;;;;;;;3.38;46.92;97067.27;1735325;80;21367;-56
2021/04/10 02:57:45;;;;;;;4.40;3.20;;;;;;;3.45;46.65;97064.05;1750867;80;21151;-58
2021/04/10 03:00:16;;;;;;;6.58;3.05;;;;;;;3.51;46.54;97066.41;1759175;80;21146;-56
2021/04/10 03:02:44;;;;;;;5.90;3.30;;;;;;;3.55;46.37;97060.72;1751498;80;21390;-58
2021/04/10 03:05:13;;;;;;;;;;;;;;;3.55;46.29;97064.11;1773843;79;21118;-58
2021/04/10 03:07:47;;;;;;;7.55;4.00;;;;;;;3.57;46.31;97061.06;1762521;79;22389;-57
2021/04/10 03:10:17;;;;;;;22.30;4.90;;;;;;;3.58;46.29;97061.44;1757747;79;21127;-57
2021/04/10 03:12:45;;;;;;;175.97;89.47;;;;;;;3.59;46.32;97064.87;1775528;78;21071;-58
2021/04/10 03:15:16;;;;;;;36.00;20.25;;;;;;;3.59;46.63;97060.56;1783483;78;21847;-56
2021/04/10 03:17:45;;;;;;;28.77;14.47;;;;;;;3.60;46.47;97062.67;1775121;78;21544;-61
2021/04/10 03:20:15;;;;;;;32.00;14.15;;;;;;;3.62;46.28;97066.05;1770872;80;22861;-57
2021/04/10 03:22:46;;;;;;;20.08;8.18;;;;;;;3.67;46.17;97061.58;1767556;78;21123;-55
2021/04/10 03:25:17;;;;;;;6.33;4.08;;;;;;;3.69;45.96;97059.34;1774747;80;21115;-57
2021/04/10 03:27:45;;;;;;;5.58;3.67;;;;;;;3.71;45.97;97056.72;1745488;78;21618;-56
2021/04/10 03:30:15;;;;;;;4.55;2.90;;;;;;;3.72;45.89;97053.27;1779250;80;21524;-56
2021/04/10 03:32:44;;;;;;;7.30;3.08;;;;;;;3.74;45.92;97053.22;1754574;80;21208;-58
2021/04/10 03:35:13;;;;;;;10.25;3.08;;;;;;;3.77;45.89;97061.64;1776117;78;21583;-57
2021/04/10 03:37:41;;;;;;;7.75;3.15;;;;;;;3.80;46.07;97054.26;1766302;80;21812;-56
2021/04/10 03:40:12;;;;;;;39.03;4.03;;;;;;;3.80;45.89;97051.69;1770034;78;21151;-57
2021/04/10 03:42:43;;;;;;;6.10;2.83;;;;;;;3.82;45.90;97057.63;1744988;80;21668;-57
2021/04/10 03:45:15;;;;;;;20.48;3.47;;;;;;;3.83;45.53;97052.45;1771725;78;22108;-57
2021/04/10 03:47:45;;;;;;;65.57;5.45;;;;;;;3.89;45.46;97050.09;1766253;78;21170;-57
2021/04/10 03:50:13;;;;;;;22.65;4.67;;;;;;;3.93;45.48;97052.95;1768570;80;21111;-56
2021/04/10 03:52:41;;;;;;;50.60;5.17;;;;;;;3.99;45.24;97055.73;1772848;78;21112;-56
2021/04/10 03:55:12;;;;;;;29.25;4.12;;;;;;;4.04;45.13;97055.93;1769878;78;21135;-57
2021/04/10 03:57:40;;;;;;;90.20;16.10;;;;;;;4.15;45.46;97054.27;1768920;78;21305;-56
2021/04/10 04:00:10;;;;;;;27.50;12.25;;;;;;;4.31;44.86;97058.39;1770230;80;21134;-58
2021/04/10 04:02:45;;;;;;;56.33;9.45;;;;;;;4.31;44.86;97058.39;1772357;78;21067;-56
2021/04/10 04:05:14;;;;;;;;;;;;;;;4.61;44.49;97059.37;1770682;80;21619;-57
2021/04/10 04:07:42;;;;;;;34.88;7.78;;;;;;;5.00;43.54;97059.13;1764269;80;20504;-56
2021/04/10 04:10:11;;;;;;;38.42;6.67;;;;;;;5.37;43.16;97062.77;1772535;80;21202;-57
2021/04/10 04:12:39;;;;;;;19.37;6.08;;;;;;;5.77;42.49;97067.48;1762749;79;21127;-57
2021/04/10 04:15:08;;;;;;;11.03;4.97;;;;;;;6.11;41.58;97063.45;1768916;79;21064;-56
2021/04/10 04:17:36;;;;;;;20.70;10.00;;;;;;;6.20;40.76;97063.02;1765486;79;21084;-57
2021/04/10 04:20:05;;;;;;;27.98;13.88;;;;;;;6.00;41.24;97066.06;1759356;80;21127;-55
2021/04/10 04:22:33;;;;;;;12.75;6.08;;;;;;;5.86;41.24;97073.06;1756408;80;21199;-57
2021/04/10 04:25:01;;;;;;;9.08;5.12;;;;;;;5.89;41.36;97075.97;1764256;80;21151;-56
2021/04/10 04:27:28;;;;;;;7.80;4.15;;;;;;;6.01;41.11;97073.33;1768736;80;21477;-56
2021/04/10 04:29:56;;;;;;;9.00;4.17;;;;;;;6.02;40.91;97068.11;1760918;79;21172;-56
2021/04/10 04:32:25;;;;;;;4.72;3.62;;;;;;;5.95;41.05;97081.29;1764145;79;21139;-57
2021/04/10 04:34:53;;;;;;;7.95;4.08;;;;;;;5.83;41.37;97080.09;1766083;80;22271;-55
2021/04/10 04:37:21;;;;;;;6.95;4.03;;;;;;;5.70;41.46;97079.78;1759278;80;21174;-56
2021/04/10 04:39:50;;;;;;;11.45;3.90;;;;;;;5.64;41.88;97078.33;1765003;79;21084;-55
2021/04/10 04:42:17;;;;;;;;;;;;;;;5.65;41.97;97079.98;1767159;79;21500;-57
2021/04/10 04:44:45;;;;;;;8.68;5.40;;;;;;;5.68;42.00;97075.98;1760951;80;20218;-57
2021/04/10 04:47:12;;;;;;;28.85;8.63;;;;;;;5.68;41.95;97085.00;1775249;79;21383;-57
2021/04/10 04:49:40;;;;;;;42.20;8.58;;;;;;;5.67;42.44;97085.92;1759844;79;21620;-55
2021/04/10 04:52:08;;;;;;;19.17;7.50;;;;;;;5.68;42.30;97085.00;1753631;80;22685;-56
2021/04/10 04:54:36;;;;;;;50.85;12.40;;;;;;;5.72;42.14;97085.70;1760238;80;21044;-56
2021/04/10 04:57:05;;;;;;;32.30;8.90;;;;;;;5.78;42.21;97085.44;1757629;79;21560;-56
2021/04/10 04:59:33;;;;;;;20.50;7.87;;;;;;;5.84;42.06;97081.78;1771852;78;21378;-57
2021/04/10 05:02:01;;;;;;;31.30;9.30;;;;;;;5.88;42.02;97084.13;1764257;80;21219;-57
2021/04/10 05:04:30;;;;;;;;;;;;;;;5.98;41.88;97085.05;1763528;80;21162;-57
2021/04/10 05:06:58;;;;;;;30.17;8.88;;;;;;;6.11;41.77;97081.48;1760976;80;20283;-56
2021/04/10 05:09:25;;;;;;;12.78;6.20;;;;;;;6.22;41.24;97085.71;1757595;80;21531;-56
2021/04/10 05:11:53;;;;;;;14.75;6.37;;;;;;;6.33;40.90;97078.77;1756166;80;21208;-56
2021/04/10 05:14:21;;;;;;;13.40;5.17;;;;;;;6.48;40.55;97084.52;1756050;80;21619;-56
2021/04/10 05:16:49;;;;;;;14.30;5.00;;;;;;;6.47;40.12;97080.27;1786876;79;21128;-56
2021/04/10 05:19:17;;;;;;;9.70;5.87;;;;;;;6.57;40.37;97089.23;1779819;80;21250;-56
2021/04/10 05:21:44;;;;;;;15.43;6.03;;;;;;;6.82;39.66;97079.05;1757676;80;21658;-56
2021/04/10 05:24:12;;;;;;;15.30;5.90;;;;;;;6.86;39.41;97090.91;1786956;79;21386;-56
2021/04/10 05:26:40;;;;;;;10.63;5.97;;;;;;;6.86;39.40;97090.05;1784652;80;21494;-56
2021/04/10 05:29:08;;;;;;;8.48;5.30;;;;;;;6.87;39.57;97086.58;1763972;80;21123;-56
2021/04/10 05:31:36;;;;;;;9.33;4.72;;;;;;;6.90;39.50;97088.55;1776209;80;21060;-55
2021/04/10 05:34:03;;;;;;;7.95;4.95;;;;;;;6.98;39.01;97089.02;1759221;80;21072;-55
2021/04/10 05:36:31;;;;;;;7.37;5.17;;;;;;;7.18;38.98;97084.64;1756018;80;21384;-56
2021/04/10 05:38:59;;;;;;;15.23;5.70;;;;;;;7.62;37.98;97088.05;1759858;80;21056;-55
2021/04/10 05:41:28;;;;;;;12.60;6.53;;;;;;;8.15;37.07;97087.94;1761801;80;21060;-56
2021/04/10 05:43:56;;;;;;;9.40;5.95;;;;;;;8.71;36.45;97089.70;1755894;81;21129;-56
2021/04/10 05:46:24;;;;;;;10.58;5.28;;;;;;;9.31;35.20;97089.77;1756016;80;21091;-57
2021/04/10 05:48:52;;;;;;;6.20;4.45;;;;;;;9.65;34.27;97087.79;1755969;81;26877;-56
2021/04/10 05:51:20;;;;;;;11.33;4.72;;;;;;;9.82;33.33;97087.25;1765969;80;21647;-57
2021/04/10 05:53:49;;;;;;;7.35;4.45;;;;;;;10.00;33.30;97083.59;1776495;80;21485;-58
2021/04/10 05:56:17;;;;;;;13.48;4.80;;;;;;;10.25;32.72;97082.09;1761454;80;21094;-55
2021/04/10 05:58:45;;;;;;;8.45;3.67;;;;;;;10.39;32.77;97080.78;1757775;80;21116;-56
2021/04/10 06:01:13;;;;;;;6.47;3.70;;;;;;;10.45;31.72;97080.89;1787391;80;21454;-57
2021/04/10 06:03:41;;;;;;;7.40;4.30;;;;;;;10.55;31.64;97083.27;1768272;80;21205;-56
2021/04/10 06:06:11;;;;;;;13.08;4.65;;;;;;;11.02;31.15;97081.20;1755843;81;21052;-58
2021/04/10 06:08:39;;;;;;;6.55;5.03;;;;;;;11.47;30.58;97080.41;1730003;80;21480;-57
2021/04/10 06:11:07;;;;;;;10.60;5.53;;;;;;;12.05;29.46;97077.44;1786001;80;21581;-57
2021/04/10 06:13:36;;;;;;;7.03;4.45;;;;;;;12.62;29.06;97073.00;1736980;81;22373;-56
2021/04/10 06:16:07;;;;;;;7.92;4.78;;;;;;;13.17;27.53;97068.66;1761248;80;21132;-57
2021/04/10 06:18:35;;;;;;;14.83;4.55;;;;;;;13.39;27.78;97075.77;1786284;79;21059;-56
2021/04/10 06:21:04;;;;;;;9.10;4.12;;;;;;;13.58;27.04;97078.64;1785410;80;21144;-56
2021/04/10 06:23:32;;;;;;;9.85;4.62;;;;;;;13.58;26.87;97083.85;1786934;79;21143;-57
2021/04/10 06:26:01;;;;;;;12.68;4.78;;;;;;;13.58;26.80;97079.12;1783194;79;22068;-57
2021/04/10 06:28:29;;;;;;;7.77;4.20;;;;;;;13.76;26.62;97080.33;1786903;80;21505;-56
2021/04/10 06:30:57;;;;;;;13.00;5.15;;;;;;;14.04;25.78;97080.02;1768845;80;21075;-57
2021/04/10 06:33:25;;;;;;;8.78;4.87;;;;;;;14.56;26.08;97072.05;1770470;80;21135;-57
2021/04/10 06:35:53;;;;;;;13.40;4.62;;;;;;;15.34;24.65;97068.84;1787047;79;21140;-57
2021/04/10 06:38:22;;;;;;;6.87;4.10;;;;;;;15.79;24.28;97067.33;1787088;79;21604;-57
2021/04/10 06:40:51;;;;;;;7.55;4.42;;;;;;;16.29;23.59;97057.42;1766492;80;21246;-57
2021/04/10 06:43:19;;;;;;;12.40;4.47;;;;;;;16.85;23.20;97061.80;1774794;80;21113;-56
2021/04/10 06:45:47;;;;;;;16.97;5.37;;;;;;;17.23;22.17;97066.72;1770591;80;21064;-57
2021/04/10 06:48:15;;;;;;;9.88;5.00;;;;;;;17.13;22.08;97066.72;1758498;80;21136;-57
2021/04/10 06:50:43;;;;;;;12.37;5.10;;;;;;;17.08;22.10;97060.56;1756159;80;21583;-55
2021/04/10 06:53:15;;;;;;;6.62;4.62;;;;;;;17.43;22.14;97053.95;1785019;79;21371;-56
2021/04/10 06:55:50;;;;;;;8.05;4.35;;;;;;;17.71;21.14;97054.02;1780681;79;21537;-56
2021/04/10 06:58:55;;;;;;;24.52;15.40;;;;;;;17.31;21.24;97062.11;1784782;80;21080;-56
2021/04/10 07:01:23;;;;;;;18.67;10.05;;;;;;;16.84;22.42;97053.55;1787117;79;21056;-60
2021/04/10 07:03:51;;;;;;;34.35;10.43;;;;;;;16.55;21.93;97064.33;1786891;80;21348;-59
2021/04/10 07:06:21;;;;;;;31.02;5.67;;;;;;;16.12;22.79;97059.37;1784800;80;21172;-60
2021/04/10 07:08:49;;;;;;;7.33;4.67;;;;;;;16.12;22.98;97061.99;1786829;80;23601;-62
2021/04/10 07:11:19;;;;;;;14.47;4.58;;;;;;;16.32;22.38;97061.09;1756060;80;21075;-60
2021/04/10 07:13:48;;;;;;;8.78;4.92;;;;;;;16.22;22.27;97056.77;1784078;80;21416;-59
2021/04/10 07:16:16;;;;;;;15.83;5.00;;;;;;;16.36;22.53;97060.34;1790669;79;21485;-59
2021/04/10 07:18:44;;;;;;;13.03;5.30;;;;;;;16.81;22.03;97059.91;1776297;79;21219;-60
2021/04/10 07:21:26;;;;;;;11.40;5.03;;;;;;;17.16;22.06;97060.38;1774554;80;21564;-61
2021/04/10 07:23:57;;;;;;;5.22;4.37;;;;;;;17.14;21.56;97055.73;1782792;80;21139;-61
2021/04/10 07:26:54;;;;;;;13.90;5.10;;;;;;;17.11;21.78;97046.38;1768022;79;21464;-59
2021/04/10 07:29:46;;;;;;;6.78;5.00;;;;;;;17.13;21.62;97059.34;1761419;80;22279;-59
2021/04/10 07:32:34;;;;;;;7.15;5.40;;;;;;;17.22;21.27;97055.41;1773428;80;21139;-58
2021/04/10 07:35:10;;;;;;;9.00;5.10;;;;;;;17.20;21.94;97053.88;1763675;80;26997;-60
2021/04/10 07:37:50;;;;;;;7.40;5.15;;;;;;;16.91;21.61;97056.02;1763879;80;21068;-60
2021/04/10 07:40:26;;;;;;;6.53;5.75;;;;;;;16.61;22.92;97056.89;1790023;80;21064;-58
2021/04/10 07:43:02;;;;;;;5.75;4.65;;;;;;;16.81;23.55;97059.91;1790158;80;21360;-59
2021/04/10 07:45:32;;;;;;;6.12;4.30;;;;;;;17.25;22.21;97058.22;1771896;78;21091;-59
2021/04/10 07:48:04;;;;;;;7.37;4.67;;;;;;;17.21;21.84;97058.98;1772864;80;21504;-60
2021/04/10 07:50:34;;;;;;;6.05;4.50;;;;;;;17.12;22.29;97061.12;1744745;80;21155;-60
2021/04/10 07:53:26;;;;;;;8.98;4.95;;;;;;;17.12;21.75;97061.12;1770459;80;21186;-59
2021/04/10 07:55:57;;;;;;;8.10;4.60;;;;;;;16.93;21.79;97061.45;1769162;80;21084;-59
2021/04/10 07:58:34;;;;;;;7.12;5.47;;;;;;;16.71;22.08;97062.97;1777204;78;21593;-59
2021/04/10 08:01:07;;;;;;;7.33;4.97;;;;;;;16.96;22.86;97062.99;1790405;79;21139;-59
2021/04/10 08:03:39;;;;;;;6.97;4.37;;;;;;;17.65;22.36;97058.55;1779026;79;21061;-58
2021/04/10 08:06:13;;;;;;;6.95;4.65;;;;;;;18.32;20.48;97069.84;1758927;81;21052;-59
2021/04/10 08:08:54;;;;;;;7.92;5.12;;;;;;;18.29;20.87;97060.93;1761408;80;21619;-58
2021/04/10 08:11:42;;;;;;;5.87;4.40;;;;;;;18.35;20.93;97063.45;1759111;81;21122;-59
2021/04/10 08:14:12;;;;;;;9.43;7.15;;;;;;;18.45;20.83;97062.91;1779774;80;21128;-58
2021/04/10 08:16:47;;;;;;;7.35;4.50;;;;;;;18.70;20.85;97058.78;1782780;80;21115;-59
2021/04/10 08:19:16;;;;;;;4.80;4.22;;;;;;;19.34;20.34;97058.73;1782855;80;21085;-58
2021/04/10 08:21:49;;;;;;;5.08;4.20;;;;;;;19.77;20.20;97058.92;1779521;80;21370;-60
2021/04/10 08:24:27;;;;;;;47.75;29.45;;;;;;;20.10;19.37;97057.80;1756388;81;21077;-60
2021/04/10 08:27:03;;;;;;;12.35;7.08;;;;;;;20.26;18.85;97061.83;1762588;81;21557;-57
2021/04/10 08:29:33;;;;;;;9.40;5.33;;;;;;;20.65;19.64;97052.13;1765718;80;21139;-58
2021/04/10 08:32:01;;;;;;;12.07;6.50;;;;;;;21.45;18.35;97051.59;1778284;80;21210;-59
2021/04/10 08:34:30;;;;;;;6.15;4.37;;;;;;;22.00;17.99;97057.97;1759935;80;21489;-59
2021/04/10 08:36:59;;;;;;;;;;;;;;;22.52;16.53;97050.07;1760571;81;21474;-58
2021/04/10 08:39:31;;;;;;;6.20;4.50;;;;;;;22.72;16.97;97050.97;1749590;79;20219;-59
2021/04/10 08:42:00;;;;;;;7.95;4.40;;;;;;;23.22;16.87;97054.97;1757924;81;21133;-58
2021/04/10 08:44:33;;;;;;;5.40;4.90;;;;;;;23.66;15.75;97050.81;1761316;81;21042;-59
2021/04/10 08:47:01;;;;;;;10.05;6.85;;;;;;;23.66;15.40;97047.65;1788704;80;21425;-59
2021/04/10 08:49:35;;;;;;;10.80;9.25;;;;;;;23.71;15.86;97043.95;1772744;80;21087;-58
2021/04/10 08:52:11;;;;;;;8.33;5.78;;;;;;;23.68;16.15;97044.83;1740577;81;21129;-58
2021/04/10 08:54:40;;;;;;;7.28;5.17;;;;;;;24.09;16.10;97042.30;1752562;81;21508;-58
2021/04/10 08:57:13;;;;;;;8.95;6.80;;;;;;;24.44;15.28;97042.88;1786467;80;21489;-59
2021/04/10 08:59:46;;;;;;;6.08;4.37;;;;;;;24.50;15.91;97042.63;1768468;80;21367;-58
2021/04/10 09:02:20;;;;;;;10.08;4.37;;;;;;;24.54;14.62;97040.42;1740430;82;21155;-58
2021/04/10 09:05:05;;;;;;;4.97;4.20;;;;;;;24.44;15.36;97038.06;1735305;81;21075;-58
2021/04/10 09:07:50;;;;;;;8.43;4.30;;;;;;;24.72;14.63;97038.25;1749505;81;21176;-56
2021/04/10 09:10:29;;;;;;;4.12;3.75;;;;;;;24.85;15.07;97035.41;1722273;82;21088;-54
2021/04/10 09:13:19;;;;;;;6.55;4.75;;;;;;;25.04;15.26;97036.13;1742546;81;21469;-54
2021/04/10 09:15:46;;;;;;;5.50;4.03;;;;;;;25.46;14.38;97033.17;1754666;80;21096;-56
2021/04/10 09:18:16;;;;;;;4.42;4.00;;;;;;;24.99;14.22;97035.35;1770616;80;21147;-53
2021/04/10 09:20:49;;;;;;;5.47;4.10;;;;;;;24.10;14.73;97035.50;1746357;82;21483;-53
2021/04/10 09:23:27;;;;;;;5.75;4.08;;;;;;;23.96;15.47;97030.49;1748287;80;21060;-56
2021/04/10 09:26:09;;;;;;;7.40;4.70;;;;;;;24.40;15.67;97022.21;1747886;82;21543;-53
2021/04/10 09:29:05;;;;;;;5.67;3.90;;;;;;;24.96;15.71;97025.62;1750484;80;21190;-54
2021/04/10 09:31:45;;;;;;;4.17;3.80;;;;;;;25.37;15.44;97026.34;1783609;79;21133;-53
2021/04/10 09:34:50;;;;;;;7.35;4.42;;;;;;;25.75;14.68;97019.89;1748078;80;21115;-52
2021/04/10 09:37:26;;;;;;;4.33;3.83;;;;;;;25.75;15.04;97014.58;1761307;79;21152;-53
2021/04/10 09:40:09;;;;;;;5.85;4.05;;;;;;;25.81;14.81;97006.64;1766717;80;21338;-56
2021/04/10 09:45:29;;;;;;;6.85;4.22;;;;;;;25.23;15.13;97013.44;1750573;80;21632;-54
2021/04/10 09:48:06;;;;;;;6.03;3.42;;;;;;;25.13;15.22;97007.12;1747869;82;21145;-54
2021/04/10 09:50:53;;;;;;;5.53;4.12;;;;;;;24.91;14.99;97000.16;1768565;81;21498;-55
2021/04/10 09:53:23;;;;;;;6.72;4.15;;;;;;;24.84;15.51;97013.36;1775242;79;21282;-58
2021/04/10 09:56:05;;;;;;;8.68;4.83;;;;;;;24.86;15.81;97002.05;1776715;79;21061;-59
2021/04/10 09:58:40;;;;;;;4.85;4.00;;;;;;;24.87;15.24;97003.70;1724535;80;21068;-58
2021/04/10 10:01:20;;;;;;;4.62;3.75;;;;;;;24.69;15.52;96994.84;1747856;80;21064;-61
2021/04/10 10:03:50;;;;;;;6.15;3.83;;;;;;;24.62;15.58;96992.59;1699309;82;21469;-57
2021/04/10 10:06:35;;;;;;;7.80;4.40;;;;;;;24.44;15.40;96991.64;1763916;80;21439;-58
2021/04/10 10:09:26;;;;;;;6.58;4.20;;;;;;;24.36;15.65;96994.41;1775475;79;21217;-57
2021/04/10 10:11:56;;;;;;;5.00;3.80;;;;;;;24.38;15.88;96993.73;1771207;79;21566;-56
2021/04/10 10:14:25;;;;;;;11.70;8.33;;;;;;;24.48;15.82;96995.59;1769333;80;21124;-61
2021/04/10 10:16:54;;;;;;;27.75;14.15;;;;;;;24.44;15.58;96988.99;1758405;80;21119;-56
2021/04/10 10:19:23;;;;;;;10.85;6.10;;;;;;;24.14;15.33;96990.37;1753886;80;21805;-57
2021/04/10 10:21:50;;;;;;;7.55;5.20;;;;;;;23.70;15.59;96989.34;1775046;80;21632;-57
2021/04/10 10:24:21;;;;;;;7.00;4.62;;;;;;;23.00;16.67;96997.05;1772508;79;21179;-56
2021/04/10 10:26:51;;;;;;;5.40;4.25;;;;;;;22.84;17.01;96997.98;1740255;81;21057;-56
2021/04/10 10:29:20;;;;;;;6.10;4.10;;;;;;;22.93;16.74;96992.96;1754842;80;21525;-56
2021/04/10 10:31:53;;;;;;;6.60;3.83;;;;;;;23.09;16.85;96986.77;1762567;80;21185;-57
2021/04/10 10:34:26;;;;;;;5.47;3.87;;;;;;;23.27;16.68;96986.94;1757213;80;21600;-57
2021/04/10 10:36:55;;;;;;;8.63;4.22;;;;;;;23.37;16.67;96980.06;1750848;80;21072;-59
2021/04/10 10:39:32;;;;;;;6.15;4.20;;;;;;;23.48;16.17;96980.95;1763432;80;21151;-60
2021/04/10 10:42:02;;;;;;;5.67;4.28;;;;;;;23.55;16.11;96982.37;1732905;80;21144;-55
2021/04/10 10:44:31;;;;;;;8.55;5.37;;;;;;;23.56;15.98;96980.06;1760316;80;21301;-56
2021/04/10 10:47:05;;;;;;;6.05;4.85;;;;;;;23.38;15.99;96969.30;1748149;82;21076;-58
2021/04/10 10:49:33;;;;;;;26.82;15.20;;;;;;;22.81;16.62;96981.64;1772884;80;21104;-59
2021/04/10 10:52:01;;;;;;;9.68;6.78;;;;;;;22.45;16.71;96983.03;1750069;80;21184;-59
2021/04/10 10:54:37;;;;;;;8.00;4.80;;;;;;;22.02;17.05;96981.18;1758489;79;21050;-59
2021/04/10 10:57:11;;;;;;;7.53;4.50;;;;;;;21.85;17.92;96984.39;1753954;80;21536;-55
2021/04/10 10:59:42;;;;;;;5.10;4.60;;;;;;;22.03;17.45;96986.30;1753555;79;21130;-55
2021/04/10 11:02:19;;;;;;;7.22;5.15;;;;;;;22.03;17.45;96986.30;1774608;80;22037;-57
2021/04/10 11:04:47;;;;;;;7.15;4.83;;;;;;;21.93;17.48;96992.28;1769516;79;21077;-55
2021/04/10 11:07:15;;;;;;;9.38;4.75;;;;;;;21.90;17.73;96986.52;1754077;80;21068;-60
2021/04/10 11:09:44;;;;;;;7.28;4.35;;;;;;;21.86;17.75;96984.72;1726774;80;21209;-58
2021/04/10 11:12:15;;;;;;;7.62;4.20;;;;;;;21.82;17.69;96986.04;1771665;79;21968;-58
2021/04/10 11:14:46;;;;;;;8.33;4.65;;;;;;;21.66;17.51;96985.58;1755738;80;21147;-58
2021/04/10 11:17:30;;;;;;;4.70;3.80;;;;;;;21.19;17.77;96978.37;1763991;80;21132;-60
2021/04/10 11:19:59;;;;;;;7.45;4.90;;;;;;;21.12;18.16;96974.25;1771788;79;21481;-59
2021/04/10 11:22:28;;;;;;;9.60;4.72;;;;;;;21.12;18.16;96975.56;1779336;80;21273;-59
2021/04/10 11:25:00;;;;;;;9.70;4.45;;;;;;;20.78;18.08;96969.94;1765328;80;21092;-62
2021/04/10 11:27:34;;;;;;;7.47;5.03;;;;;;;20.32;19.09;96982.16;1755662;80;21140;-58
2021/04/10 11:30:11;;;;;;;6.83;4.58;;;;;;;20.30;19.25;96974.09;1759567;80;21180;-56
2021/04/10 11:32:42;;;;;;;6.30;4.50;;;;;;;20.53;19.26;96965.91;1773170;79;21084;-57
2021/04/10 11:35:20;;;;;;;28.62;6.58;;;;;;;20.86;18.46;96963.85;1727934;82;21493;-59
2021/04/10 11:38:05;;;;;;;7.67;5.10;;;;;;;20.79;18.08;96961.05;1748759;80;21496;-58
2021/04/10 11:40:36;;;;;;;7.83;4.47;;;;;;;20.36;18.96;96960.25;1756875;80;21140;-55
2021/04/10 11:43:06;;;;;;;5.87;4.60;;;;;;;19.85;18.72;96964.18;1779308;80;21127;-57
2021/04/10 11:45:39;;;;;;;6.50;4.08;;;;;;;19.42;19.10;96959.31;1756917;80;21551;-53
2021/04/10 11:48:19;;;;;;;8.13;4.72;;;;;;;19.28;19.33;96964.16;1779313;79;21194;-53
2021/04/10 11:50:58;;;;;;;7.58;4.62;;;;;;;19.07;20.02;96953.97;1752360;80;21139;-53
2021/04/10 11:53:39;;;;;;;7.55;4.45;;;;;;;19.12;20.52;96957.46;1743927;80;26657;-53
2021/04/10 11:56:26;;;;;;;11.85;5.10;;;;;;;19.31;19.56;96947.25;1735514;82;21061;-53
2021/04/10 11:59:07;;;;;;;12.33;4.80;;;;;;;19.38;20.18;96946.14;1759590;80;21184;-55
2021/04/10 12:01:51;;;;;;;11.25;4.90;;;;;;;19.44;19.11;96954.71;1757734;80;21073;-54
2021/04/10 12:04:26;;;;;;;10.80;4.67;;;;;;;19.22;19.44;96947.66;1756509;80;21140;-53